PWSweather.com
Personal Weather Stations
Station Observations

ChardChardGB

Lat: 50.877408, Lon: -2.94964741

Elevation: 341

Station Type: WS3083

http://www.merriott-astro.co.uk/weather/index.htm

Latest ConditionsUpdated 12:10:09 PM GMT Tuesday, Jul 23, 2019
Currently Today's Max Today's Min Today's Average
Temperature 60.1°F15.6°C 62.8°F17.1°C 59.5°F15.3°C 60.6°F15.9°C
Dew Point 59.8°F15.4°C 62.5°F16.9°C 59.3°F15.2°C 60.3°F15.7°C
Winds 1.6 mph NE2.6 kmh NE 2.9 mph -4.7 kmh - - 1.3 mph 2.1 kmh
Wind Gusts 1.6 mph2.6 kmh 4.5 mph7.2 kmh - -
Humidity 99% 99% 99% 99%
Pressure 29.55 in1000.7 mb 29.72 in1006.4 mb 29.55 in1000.7 mb -
Hour Temp Dew Point Humidity Winds Wind Gusts Pressure Precip Precip Rate Daily Precip Total
12:10 PM 60.1°F15.6°C 59.8°F15.4°C 99% 1.6 mph NE2.6 kmh NE 1.6 mph2.6 kmh 29.55 in1000.7 mb 0.00 in0.0 mm 0.00 in0.0 mm 0.00 in0.0 mm
12:00 PM 60.1°F15.6°C 59.8°F15.4°C 99% 1.6 mph NE2.6 kmh NE 1.6 mph2.6 kmh 29.55 in1000.7 mb 0.00 in0.0 mm 0.00 in0.0 mm 0.00 in0.0 mm
11:50 AM 60.1°F15.6°C 59.8°F15.4°C 99% 1.6 mph NE2.6 kmh NE 1.6 mph2.6 kmh 29.55 in1000.7 mb 0.00 in0.0 mm 0.00 in0.0 mm 0.00 in0.0 mm
11:40 AM 60.1°F15.6°C 59.8°F15.4°C 99% 1.6 mph NE2.6 kmh NE 1.6 mph2.6 kmh 29.56 in1001.0 mb 0.00 in0.0 mm 0.00 in0.0 mm 0.00 in0.0 mm
11:30 AM 60.1°F15.6°C 59.8°F15.4°C 99% 1.6 mph NE2.6 kmh NE 1.6 mph2.6 kmh 29.56 in1001.0 mb 0.00 in0.0 mm 0.00 in0.0 mm 0.00 in0.0 mm
11:20 AM 60.1°F15.6°C 59.8°F15.4°C 99% 1.6 mph NE2.6 kmh NE 1.6 mph2.6 kmh 29.57 in1001.4 mb 0.00 in0.0 mm 0.00 in0.0 mm 0.00 in0.0 mm
11:10 AM 60.1°F15.6°C 59.8°F15.4°C 99% 1.6 mph NE2.6 kmh NE 1.6 mph2.6 kmh 29.58 in1001.7 mb 0.00 in0.0 mm 0.00 in0.0 mm 0.00 in0.0 mm
11:00 AM 60.1°F15.6°C 59.8°F15.4°C 99% 1.6 mph NE2.6 kmh NE 1.6 mph2.6 kmh 29.57 in1001.4 mb 0.00 in0.0 mm 0.00 in0.0 mm 0.00 in0.0 mm
10:50 AM 60.1°F15.6°C 59.8°F15.4°C 99% 1.6 mph NE2.6 kmh NE 1.6 mph2.6 kmh 29.58 in1001.7 mb 0.00 in0.0 mm 0.00 in0.0 mm 0.00 in0.0 mm
10:40 AM 60.1°F15.6°C 59.8°F15.4°C 99% 1.6 mph NE2.6 kmh NE 1.6 mph2.6 kmh 29.59 in1002.0 mb 0.00 in0.0 mm 0.00 in0.0 mm 0.00 in0.0 mm
10:30 AM 60.1°F15.6°C 59.8°F15.4°C 99% 1.6 mph NE2.6 kmh NE 1.6 mph2.6 kmh 29.59 in1002.0 mb 0.00 in0.0 mm 0.00 in0.0 mm 0.00 in0.0 mm
10:20 AM 60.1°F15.6°C 59.8°F15.4°C 99% 1.6 mph NE2.6 kmh NE 1.6 mph2.6 kmh 29.59 in1002.0 mb 0.00 in0.0 mm 0.00 in0.0 mm 0.00 in0.0 mm
10:10 AM 60.1°F15.6°C 59.8°F15.4°C 99% 1.6 mph NE2.6 kmh NE 1.6 mph2.6 kmh 29.59 in1002.0 mb 0.00 in0.0 mm 0.00 in0.0 mm 0.00 in0.0 mm
10:00 AM 60.1°F15.6°C 59.8°F15.4°C 99% 1.6 mph NE2.6 kmh NE 1.6 mph2.6 kmh 29.59 in1002.0 mb 0.00 in0.0 mm 0.00 in0.0 mm 0.00 in0.0 mm
09:50 AM 60.1°F15.6°C 59.8°F15.4°C 99% 1.6 mph NE2.6 kmh NE 1.6 mph2.6 kmh 29.60 in1002.4 mb 0.00 in0.0 mm 0.00 in0.0 mm 0.00 in0.0 mm
09:40 AM 60.1°F15.6°C 59.8°F15.4°C 99% 1.6 mph NE2.6 kmh NE 1.6 mph2.6 kmh 29.61 in1002.7 mb 0.00 in0.0 mm 0.00 in0.0 mm 0.00 in0.0 mm
09:30 AM 60.1°F15.6°C 59.8°F15.4°C 99% 1.6 mph NE2.6 kmh NE 1.6 mph2.6 kmh 29.60 in1002.4 mb 0.00 in0.0 mm 0.00 in0.0 mm 0.00 in0.0 mm
09:20 AM 60.1°F15.6°C 59.8°F15.4°C 99% 1.6 mph NE2.6 kmh NE 1.6 mph2.6 kmh 29.61 in1002.7 mb 0.00 in0.0 mm 0.00 in0.0 mm 0.00 in0.0 mm
09:10 AM 60.1°F15.6°C 59.8°F15.4°C 99% 1.6 mph NE2.6 kmh NE 1.6 mph2.6 kmh 29.62 in1003.0 mb 0.00 in0.0 mm 0.00 in0.0 mm 0.00 in0.0 mm
09:00 AM 60.1°F15.6°C 59.8°F15.4°C 99% 1.6 mph NE2.6 kmh NE 1.6 mph2.6 kmh 29.62 in1003.0 mb 0.00 in0.0 mm 0.00 in0.0 mm 0.00 in0.0 mm
08:50 AM 60.1°F15.6°C 59.8°F15.4°C 99% 1.6 mph NE2.6 kmh NE 1.6 mph2.6 kmh 29.62 in1003.0 mb 0.00 in0.0 mm 0.00 in0.0 mm 0.00 in0.0 mm
08:40 AM 60.1°F15.6°C 59.8°F15.4°C 99% 1.6 mph NE2.6 kmh NE 1.6 mph2.6 kmh 29.62 in1003.0 mb 0.00 in0.0 mm 0.00 in0.0 mm 0.00 in0.0 mm
08:30 AM 60.1°F15.6°C 59.8°F15.4°C 99% 1.6 mph NE2.6 kmh NE 1.6 mph2.6 kmh 29.62 in1003.0 mb 0.00 in0.0 mm 0.00 in0.0 mm 0.00 in0.0 mm
08:20 AM 60.1°F15.6°C 59.8°F15.4°C 99% 1.6 mph NE2.6 kmh NE 1.6 mph2.6 kmh 29.62 in1003.0 mb 0.00 in0.0 mm 0.00 in0.0 mm 0.00 in0.0 mm
08:10 AM 60.1°F15.6°C 59.8°F15.4°C 99% 1.6 mph NE2.6 kmh NE 1.6 mph2.6 kmh 29.62 in1003.0 mb 0.00 in0.0 mm 0.00 in0.0 mm 0.00 in0.0 mm
08:00 AM 60.1°F15.6°C 59.8°F15.4°C 99% 1.6 mph NE2.6 kmh NE 1.6 mph2.6 kmh 29.63 in1003.4 mb 0.00 in0.0 mm 0.00 in0.0 mm 0.00 in0.0 mm
07:50 AM 60.1°F15.6°C 59.8°F15.4°C 99% 1.6 mph NE2.6 kmh NE 1.6 mph2.6 kmh 29.62 in1003.0 mb 0.00 in0.0 mm 0.00 in0.0 mm 0.00 in0.0 mm
07:40 AM 60.1°F15.6°C 59.8°F15.4°C 99% 1.6 mph NE2.6 kmh NE 1.6 mph2.6 kmh 29.63 in1003.4 mb 0.00 in0.0 mm 0.00 in0.0 mm 0.00 in0.0 mm
07:30 AM 60.1°F15.6°C 59.8°F15.4°C 99% 1.6 mph NE2.6 kmh NE 1.6 mph2.6 kmh 29.63 in1003.4 mb 0.00 in0.0 mm 0.00 in0.0 mm 0.00 in0.0 mm
07:20 AM 60.1°F15.6°C 59.8°F15.4°C 99% 1.6 mph NE2.6 kmh NE 1.6 mph2.6 kmh 29.63 in1003.4 mb 0.00 in0.0 mm 0.00 in0.0 mm 0.00 in0.0 mm
07:10 AM 60.1°F15.6°C 59.8°F15.4°C 99% 1.6 mph NE2.6 kmh NE 1.6 mph2.6 kmh 29.64 in1003.7 mb 0.00 in0.0 mm 0.00 in0.0 mm 0.00 in0.0 mm
07:00 AM 60.1°F15.6°C 59.8°F15.4°C 99% 1.6 mph NE2.6 kmh NE 1.6 mph2.6 kmh 29.64 in1003.7 mb 0.00 in0.0 mm 0.00 in0.0 mm 0.00 in0.0 mm
06:50 AM 60.1°F15.6°C 59.8°F15.4°C 99% 1.6 mph NE2.6 kmh NE 1.6 mph2.6 kmh 29.64 in1003.7 mb 0.00 in0.0 mm 0.00 in0.0 mm 0.00 in0.0 mm
06:40 AM 60.1°F15.6°C 59.8°F15.4°C 99% 1.6 mph NE2.6 kmh NE 1.6 mph2.6 kmh 29.64 in1003.7 mb 0.00 in0.0 mm 0.00 in0.0 mm 0.00 in0.0 mm
06:30 AM 60.1°F15.6°C 59.8°F15.4°C 99% 1.6 mph NE2.6 kmh NE 1.6 mph2.6 kmh 29.66 in1004.4 mb 0.00 in0.0 mm 0.00 in0.0 mm 0.00 in0.0 mm
06:20 AM 60.1°F15.6°C 59.8°F15.4°C 99% 1.6 mph NE2.6 kmh NE 1.6 mph2.6 kmh 29.65 in1004.1 mb 0.00 in0.0 mm 0.00 in0.0 mm 0.00 in0.0 mm
06:10 AM 60.1°F15.6°C 59.8°F15.4°C 99% 1.6 mph NE2.6 kmh NE 1.6 mph2.6 kmh 29.66 in1004.4 mb 0.00 in0.0 mm 0.00 in0.0 mm 0.00 in0.0 mm
06:00 AM 60.1°F15.6°C 59.8°F15.4°C 99% 1.3 mph NNE2.1 kmh NNE 1.6 mph2.6 kmh 29.65 in1004.1 mb 0.00 in0.0 mm 0.00 in0.0 mm 0.00 in0.0 mm
05:50 AM 60.3°F15.7°C 60.0°F15.6°C 99% 0.6 mph NE1.0 kmh NE 1.6 mph2.6 kmh 29.66 in1004.4 mb 0.00 in0.0 mm 0.00 in0.0 mm 0.00 in0.0 mm
05:40 AM 60.3°F15.7°C 60.0°F15.6°C 99% 0.1 mph NE0.2 kmh NE 1.6 mph2.6 kmh 29.66 in1004.4 mb 0.00 in0.0 mm 0.00 in0.0 mm 0.00 in0.0 mm
05:30 AM 59.9°F15.5°C 59.6°F15.3°C 99% 0.1 mph NE0.2 kmh NE 0.7 mph1.1 kmh 29.66 in1004.4 mb 0.00 in0.0 mm 0.00 in0.0 mm 0.00 in0.0 mm
05:20 AM 59.9°F15.5°C 59.6°F15.3°C 99% 0.3 mph NE0.5 kmh NE 1.6 mph2.6 kmh 29.67 in1004.7 mb 0.00 in0.0 mm 0.00 in0.0 mm 0.00 in0.0 mm
05:10 AM 59.9°F15.5°C 59.6°F15.3°C 99% 0.1 mph SW0.2 kmh SW 0.7 mph1.1 kmh 29.66 in1004.4 mb 0.00 in0.0 mm 0.00 in0.0 mm 0.00 in0.0 mm
05:00 AM 59.7°F15.4°C 59.5°F15.3°C 99% 0.2 mph SW0.3 kmh SW 1.6 mph2.6 kmh 29.67 in1004.7 mb 0.00 in0.0 mm 0.00 in0.0 mm 0.00 in0.0 mm
04:50 AM 59.7°F15.4°C 59.5°F15.3°C 99% 0.2 mph WSW0.3 kmh WSW 1.6 mph2.6 kmh 29.66 in1004.4 mb 0.00 in0.0 mm 0.00 in0.0 mm 0.00 in0.0 mm
04:40 AM 59.5°F15.3°C 59.3°F15.2°C 99% 1.3 mph SSW2.1 kmh SSW 2.2 mph3.5 kmh 29.68 in1005.1 mb 0.00 in0.0 mm 0.00 in0.0 mm 0.00 in0.0 mm
04:30 AM 59.7°F15.4°C 59.5°F15.3°C 99% 1.8 mph SSW2.9 kmh SSW 3.1 mph5.0 kmh 29.67 in1004.7 mb 0.00 in0.0 mm 0.00 in0.0 mm 0.00 in0.0 mm
04:20 AM 59.9°F15.5°C 59.6°F15.3°C 99% 1.6 mph SSW2.6 kmh SSW 3.1 mph5.0 kmh 29.67 in1004.7 mb 0.00 in0.0 mm 0.00 in0.0 mm 0.00 in0.0 mm
04:10 AM 59.9°F15.5°C 59.6°F15.3°C 99% 2.0 mph S3.2 kmh S 3.8 mph6.1 kmh 29.68 in1005.1 mb 0.00 in0.0 mm 0.00 in0.0 mm 0.00 in0.0 mm
04:00 AM 60.1°F15.6°C 59.8°F15.4°C 99% 1.2 mph SW1.9 kmh SW 2.2 mph3.5 kmh 29.68 in1005.1 mb 0.00 in0.0 mm 0.00 in0.0 mm 0.00 in0.0 mm
03:50 AM 60.3°F15.7°C 60.0°F15.6°C 99% 1.2 mph SW1.9 kmh SW 2.2 mph3.5 kmh 29.68 in1005.1 mb 0.00 in0.0 mm 0.00 in0.0 mm 0.00 in0.0 mm
03:40 AM 60.4°F15.8°C 60.2°F15.7°C 99% 1.4 mph SSW2.3 kmh SSW 3.1 mph5.0 kmh 29.68 in1005.1 mb 0.00 in0.0 mm 0.00 in0.0 mm 0.00 in0.0 mm
03:30 AM 60.6°F15.9°C 60.4°F15.8°C 99% 0.7 mph SSW1.1 kmh SSW 1.6 mph2.6 kmh 29.68 in1005.1 mb 0.00 in0.0 mm 0.00 in0.0 mm 0.00 in0.0 mm
03:20 AM 60.8°F16.0°C 60.5°F15.8°C 99% 0.4 mph S0.6 kmh S 1.6 mph2.6 kmh 29.68 in1005.1 mb 0.00 in0.0 mm 0.00 in0.0 mm 0.00 in0.0 mm
03:10 AM 60.8°F16.0°C 60.5°F15.8°C 99% 0.3 mph ENE0.5 kmh ENE 1.6 mph2.6 kmh 29.68 in1005.1 mb 0.00 in0.0 mm 0.00 in0.0 mm 0.00 in0.0 mm
03:00 AM 61.0°F16.1°C 60.7°F15.9°C 99% 0.2 mph ESE0.3 kmh ESE 0.7 mph1.1 kmh 29.69 in1005.4 mb 0.00 in0.0 mm 0.00 in0.0 mm 0.00 in0.0 mm
02:50 AM 61.0°F16.1°C 60.7°F15.9°C 99% 0.4 mph SE0.6 kmh SE 1.6 mph2.6 kmh 29.69 in1005.4 mb 0.00 in0.0 mm 0.00 in0.0 mm 0.00 in0.0 mm
02:40 AM 61.0°F16.1°C 60.7°F15.9°C 99% 0.4 mph SE0.6 kmh SE 1.6 mph2.6 kmh 29.70 in1005.8 mb 0.00 in0.0 mm 0.00 in0.0 mm 0.00 in0.0 mm
02:30 AM 61.2°F16.2°C 60.9°F16.1°C 99% 1.2 mph S1.9 kmh S 3.8 mph6.1 kmh 29.70 in1005.8 mb 0.00 in0.0 mm 0.00 in0.0 mm 0.00 in0.0 mm
02:20 AM 61.3°F16.3°C 61.1°F16.2°C 99% 0.4 mph ESE0.6 kmh ESE 1.6 mph2.6 kmh 29.70 in1005.8 mb 0.00 in0.0 mm 0.00 in0.0 mm 0.00 in0.0 mm
02:00 AM 61.7°F16.5°C 61.4°F16.3°C 99% 2.0 mph S3.2 kmh S 3.1 mph5.0 kmh 29.70 in1005.8 mb 0.00 in0.0 mm 0.00 in0.0 mm 0.00 in0.0 mm
01:50 AM 61.9°F16.6°C 61.6°F16.4°C 99% 2.2 mph SW3.5 kmh SW 3.8 mph6.1 kmh 29.71 in1006.1 mb 0.00 in0.0 mm 0.00 in0.0 mm 0.00 in0.0 mm
01:40 AM 62.2°F16.8°C 62.0°F16.7°C 99% 2.5 mph S4.0 kmh S 3.1 mph5.0 kmh 29.71 in1006.1 mb 0.00 in0.0 mm 0.00 in0.0 mm 0.00 in0.0 mm
01:30 AM 62.2°F16.8°C 62.0°F16.7°C 99% 2.7 mph SSW4.3 kmh SSW 4.5 mph7.2 kmh 29.71 in1006.1 mb 0.00 in0.0 mm 0.00 in0.0 mm 0.00 in0.0 mm
01:20 AM 62.1°F16.7°C 61.8°F16.6°C 99% 2.9 mph S4.7 kmh S 4.5 mph7.2 kmh 29.71 in1006.1 mb 0.00 in0.0 mm 0.00 in0.0 mm 0.00 in0.0 mm
01:10 AM 62.1°F16.7°C 61.8°F16.6°C 99% 2.3 mph SSW3.7 kmh SSW 3.8 mph6.1 kmh 29.71 in1006.1 mb 0.00 in0.0 mm 0.00 in0.0 mm 0.00 in0.0 mm
01:00 AM 62.4°F16.9°C 62.2°F16.8°C 99% 1.1 mph S1.8 kmh S 3.1 mph5.0 kmh 29.71 in1006.1 mb 0.00 in0.0 mm 0.00 in0.0 mm 0.00 in0.0 mm
12:50 AM 62.2°F16.8°C 62.0°F16.7°C 99% 0.1 mph S0.2 kmh S 0.7 mph1.1 kmh 29.71 in1006.1 mb 0.00 in0.0 mm 0.00 in0.0 mm 0.00 in0.0 mm
12:40 AM 62.2°F16.8°C 62.0°F16.7°C 99% 0.6 mph SW1.0 kmh SW 1.6 mph2.6 kmh 29.71 in1006.1 mb 0.00 in0.0 mm 0.00 in0.0 mm 0.00 in0.0 mm
12:30 AM 62.4°F16.9°C 62.2°F16.8°C 99% 0.4 mph SSW0.6 kmh SSW 1.6 mph2.6 kmh 29.72 in1006.4 mb 0.00 in0.0 mm 0.00 in0.0 mm 0.00 in0.0 mm
12:20 AM 62.4°F16.9°C 62.2°F16.8°C 99% 0.5 mph SW0.8 kmh SW 1.6 mph2.6 kmh 29.72 in1006.4 mb 0.00 in0.0 mm 0.00 in0.0 mm 0.00 in0.0 mm
12:10 AM 62.6°F17.0°C 62.3°F16.8°C 99% 0.8 mph S1.3 kmh S 2.2 mph3.5 kmh 29.72 in1006.4 mb 0.00 in0.0 mm 0.00 in0.0 mm 0.00 in0.0 mm
12:00 AM 62.8°F17.1°C 62.5°F16.9°C 99% 0.6 mph SW1.0 kmh SW 1.6 mph2.6 kmh 29.72 in1006.4 mb 0.00 in0.0 mm 0.00 in0.0 mm 0.00 in0.0 mm